Onda, AR

7:03 AM CDT on April 23, 2017 (GMT -0500)
Hwy 170 | | Change Station

Elev 1625 ft 35.86 °N, 94.25 °W | Updated 1 day ago

Clear
Clear
54.5 °F
Feels Like 54.5 °F
N
18.4
Wind Variable Wind from NE
Gusts 18.4 mph

Today
High -- | Low -- °F
--% Chance of Precip.
Yesterday
High -- | Low -- °F
Precip. -- in
Pressure 30.12 in
Visibility 10.0 miles
Clouds Clear
Dew Point 53 °F
Humidity 96%
Rainfall 0.00 in
Snow Depth Not available.
6:33 AM 7:57 PM
Waning Crescent, 12% visible
METAR KFYV 231153Z 36003KT 10SM CLR 05/05 A3011 RMK AO2 SLP197 70005 T00500050 10078 20044 53009
Pressure 30.12 in
Visibility 10.0 miles
Clouds Clear
Dew Point 53 °F
Humidity 96%
Rainfall 0.00 in
Snow Depth Not available.
6:33 AM 7:57 PM
Waning Crescent, 12% visible
METAR KFYV 231153Z 36003KT 10SM CLR 05/05 A3011 RMK AO2 SLP197 70005 T00500050 10078 20044 53009

Get Severe Weather Alerts

Thanks for signing up!

Be on the lookout for a verification email in your inbox.

You'll start receiving the daily forecast at 8 AM.

×

10-Day Weather Forecast

Almanac

Astronomy

Apr. 23, 2017 Rise Set
Actual Time
Civil Twilight
Nautical Twilight
Astronomical Twilight
Moon
Length of Visible Light
Length of Day
Tomorrow will be .
, % of the Moon is Illuminated

Today's Extremes

State Highs State Lows

Community

WunderPhotos

WunderBlog® & News

Nearby

Air Quality

  Air Quality AQ Index Pollutant
Not available.

Snow Depth

Station Depth Elevation

Earthquake Activity

City Distance Mag. Time & Date
Minimum magnitude displayed is 2.5.

Coastal Water Temperatures

Place Temperature

Stations

Nearby Weather Stations

Station Location Temp. Windchill Dew Point Humidity Wind Precip. Elev Updated Type
                   

Watches & Warnings

There are currently no watches in effect.